createdAt,value
2018-04-16T00:00:18.566Z,12.93
2018-04-16T00:02:46.149Z,12.82
2018-04-16T00:05:13.741Z,12.75
2018-04-16T00:07:41.322Z,12.66
2018-04-16T00:10:08.907Z,12.62
2018-04-16T00:12:36.489Z,12.58
2018-04-16T00:15:04.073Z,12.58
2018-04-16T00:17:31.656Z,12.56
2018-04-16T00:19:59.236Z,12.56
2018-04-16T00:22:26.820Z,12.53
2018-04-16T00:24:54.438Z,12.55
2018-04-16T00:27:22.829Z,12.52
2018-04-16T00:29:50.416Z,12.53
2018-04-16T00:32:24.642Z,12.55
2018-04-16T00:34:57.833Z,12.56
2018-04-16T00:37:32.057Z,12.71
2018-04-16T00:43:04.343Z,12.85
2018-04-16T00:45:37.534Z,12.84
2018-04-16T00:48:10.779Z,12.86
2018-04-16T00:50:44.069Z,12.82
2018-04-16T00:53:17.243Z,12.95
2018-04-16T00:55:50.424Z,12.88
2018-04-16T00:58:23.650Z,12.84
2018-04-16T01:00:56.837Z,13.07
2018-04-16T01:03:30.266Z,13.00
2018-04-16T01:06:03.397Z,12.96
2018-04-16T01:08:36.589Z,12.89
2018-04-16T01:11:09.833Z,12.84
2018-04-16T01:13:42.981Z,12.79
2018-04-16T01:16:16.293Z,12.79
2018-04-16T01:18:49.409Z,12.77
2018-04-16T01:21:22.717Z,12.72
2018-04-16T01:23:56.123Z,12.65
2018-04-16T01:26:29.461Z,12.74
2018-04-16T01:29:02.810Z,12.88
2018-04-16T01:31:36.025Z,12.90
2018-04-16T01:34:09.321Z,12.91
2018-04-16T01:36:42.432Z,12.90
2018-04-16T01:39:15.685Z,12.80
2018-04-16T01:41:48.945Z,12.73
2018-04-16T01:44:22.257Z,12.74
2018-04-16T01:46:55.654Z,12.85
2018-04-16T01:49:28.917Z,12.72
2018-04-16T01:52:02.090Z,12.64
2018-04-16T01:54:35.377Z,12.77
2018-04-16T01:57:08.574Z,12.74
2018-04-16T01:59:41.765Z,12.65
2018-04-16T02:02:14.957Z,12.50
2018-04-16T02:04:48.154Z,12.48
2018-04-16T02:07:21.341Z,12.51
2018-04-16T02:09:54.501Z,12.53
2018-04-16T02:12:27.749Z,12.48
2018-04-16T02:15:00.934Z,12.45
2018-04-16T02:17:33.932Z,12.49
2018-04-16T02:20:07.101Z,12.43
2018-04-16T02:22:40.335Z,12.41
2018-04-16T02:25:13.485Z,12.62
2018-04-16T02:30:50.830Z,12.50
2018-04-16T02:33:24.017Z,12.45
2018-04-16T02:35:58.062Z,12.41
2018-04-16T02:38:31.176Z,12.43
2018-04-16T02:41:04.445Z,12.74
2018-04-16T02:43:37.620Z,12.78
2018-04-16T02:46:10.805Z,12.57
2018-04-16T02:48:43.925Z,12.62
2018-04-16T02:51:17.166Z,12.81
2018-04-16T02:53:50.457Z,12.86
2018-04-16T02:59:24.277Z,12.86
2018-04-16T03:01:57.597Z,12.68
2018-04-16T03:04:30.882Z,12.59
2018-04-16T03:07:04.169Z,12.64
2018-04-16T03:09:37.565Z,12.80
2018-04-16T03:12:10.734Z,12.70
2018-04-16T03:14:44.005Z,12.54
2018-04-16T03:17:17.204Z,12.42
2018-04-16T03:19:50.541Z,12.35
2018-04-16T03:22:23.758Z,12.30
2018-04-16T03:24:56.925Z,12.26
2018-04-16T03:27:30.019Z,12.26
2018-04-16T03:30:03.214Z,12.18
2018-04-16T03:32:36.532Z,12.17
2018-04-16T03:35:09.841Z,12.11
2018-04-16T03:37:43.161Z,12.11
2018-04-16T03:40:16.245Z,12.10
2018-04-16T03:42:49.401Z,12.11
2018-04-16T03:45:22.570Z,12.10
2018-04-16T03:47:55.754Z,12.07
2018-04-16T03:50:29.002Z,12.10
2018-04-16T03:53:02.117Z,12.09
2018-04-16T03:55:35.307Z,12.09
2018-04-16T03:58:02.901Z,12.07
2018-04-16T04:00:30.502Z,12.10
2018-04-16T04:02:58.114Z,12.10
2018-04-16T04:05:25.725Z,12.09
2018-04-16T04:07:53.306Z,12.13
2018-04-16T04:10:20.918Z,12.14
2018-04-16T04:12:49.393Z,12.36
2018-04-16T04:15:17.756Z,12.25
2018-04-16T04:17:46.190Z,12.50
2018-04-16T04:20:13.826Z,12.63
2018-04-16T04:22:53.198Z,12.45
2018-04-16T04:25:32.513Z,12.52
2018-04-16T04:28:11.781Z,12.67
2018-04-16T04:30:39.393Z,12.42
2018-04-16T04:33:06.972Z,12.33
2018-04-16T04:35:34.581Z,12.28
2018-04-16T04:38:02.993Z,12.22
2018-04-16T04:40:31.475Z,12.50
2018-04-16T04:42:59.867Z,12.38
2018-04-16T04:45:28.274Z,12.37
2018-04-16T04:47:56.794Z,12.33
2018-04-16T04:50:25.237Z,12.28
2018-04-16T04:52:53.757Z,12.43
2018-04-16T04:55:21.336Z,12.47
2018-04-16T04:57:48.920Z,12.34
2018-04-16T05:00:16.532Z,12.29
2018-04-16T05:02:44.217Z,12.23
2018-04-16T05:05:12.647Z,12.18
2018-04-16T05:07:41.777Z,12.18
2018-04-16T05:10:10.222Z,12.17
2018-04-16T05:12:38.610Z,12.12
2018-04-16T05:15:06.194Z,12.11
2018-04-16T05:17:33.825Z,12.34
2018-04-16T05:20:01.417Z,12.17
2018-04-16T05:22:29.050Z,12.27
2018-04-16T05:24:56.684Z,12.22
2018-04-16T05:27:24.265Z,12.29
2018-04-16T05:29:51.891Z,12.48
2018-04-16T05:32:19.570Z,12.60
2018-04-16T05:34:47.150Z,12.63
2018-04-16T05:37:15.517Z,12.50
2018-04-16T05:39:44.022Z,12.44
2018-04-16T05:42:11.607Z,12.48
2018-04-16T05:44:39.264Z,12.33
2018-04-16T05:47:06.846Z,12.27
2018-04-16T05:49:34.424Z,12.20
2018-04-16T05:52:02.001Z,12.16
2018-04-16T05:54:29.629Z,12.10
2018-04-16T05:56:57.265Z,12.08
2018-04-16T05:59:24.858Z,12.37
2018-04-16T06:01:52.443Z,12.50
2018-04-16T06:04:20.880Z,12.53
2018-04-16T06:06:48.469Z,12.40
2018-04-16T06:09:16.100Z,12.27
2018-04-16T06:11:43.766Z,12.25
2018-04-16T06:14:12.132Z,12.34
2018-04-16T06:16:39.712Z,12.29
2018-04-16T06:19:07.301Z,12.21
2018-04-16T06:21:34.914Z,12.17
2018-04-16T06:24:02.500Z,12.26
2018-04-16T06:26:30.085Z,12.27
2018-04-16T06:28:57.833Z,12.33
2018-04-16T06:31:25.413Z,12.30
2018-04-16T06:33:53.021Z,12.34
2018-04-16T06:36:21.415Z,12.23
2018-04-16T06:38:52.392Z,12.16
2018-04-16T06:41:19.970Z,12.17
2018-04-16T06:43:47.585Z,12.08
2018-04-16T06:46:16.061Z,12.12
2018-04-16T06:48:43.685Z,11.96
2018-04-16T06:51:12.061Z,11.83
2018-04-16T06:53:39.642Z,11.88
2018-04-16T06:56:08.153Z,11.84
2018-04-16T06:58:35.781Z,11.86
2018-04-16T07:01:04.219Z,11.75
2018-04-16T07:03:31.848Z,11.92
2018-04-16T07:05:59.471Z,11.99
2018-04-16T07:08:27.876Z,11.94
2018-04-16T07:10:55.561Z,11.99
2018-04-16T07:13:23.922Z,11.86
2018-04-16T07:15:52.314Z,11.80
2018-04-16T07:18:19.904Z,11.84
2018-04-16T07:20:49.924Z,11.81
2018-04-16T07:23:18.785Z,11.64
2018-04-16T07:25:47.218Z,11.60
2018-04-16T07:28:15.808Z,11.78
2018-04-16T07:30:44.336Z,11.81
2018-04-16T07:33:11.929Z,11.63
2018-04-16T07:35:40.458Z,11.55
2018-04-16T07:38:08.099Z,11.49
2018-04-16T07:40:36.664Z,11.57
2018-04-16T07:43:04.289Z,11.61
2018-04-16T07:45:31.873Z,11.66
2018-04-16T07:47:59.518Z,11.66
2018-04-16T07:50:29.234Z,11.70
2018-04-16T07:52:56.817Z,11.73
2018-04-16T07:55:24.401Z,11.77
2018-04-16T07:57:51.980Z,11.77
2018-04-16T08:00:19.560Z,11.83
2018-04-16T08:02:47.182Z,11.71
2018-04-16T08:05:15.574Z,11.75
2018-04-16T08:07:43.227Z,11.64
2018-04-16T08:10:11.611Z,11.69
2018-04-16T08:12:40.017Z,11.55
2018-04-16T08:15:07.702Z,11.52
2018-04-16T08:17:35.326Z,11.62
2018-04-16T08:20:02.936Z,11.64
2018-04-16T08:22:30.521Z,11.66
2018-04-16T08:24:58.110Z,11.68
2018-04-16T08:27:26.629Z,11.73
2018-04-16T08:29:54.258Z,11.69
2018-04-16T08:32:21.890Z,11.80
2018-04-16T08:34:49.673Z,11.90
2018-04-16T08:37:17.298Z,11.82
2018-04-16T08:39:45.730Z,11.92
2018-04-16T08:42:14.244Z,11.90
2018-04-16T08:44:41.909Z,12.13
2018-04-16T08:47:09.498Z,12.08
2018-04-16T08:49:37.136Z,11.98
2018-04-16T08:52:04.730Z,12.18
2018-04-16T08:54:32.323Z,12.33
2018-04-16T08:57:00.820Z,12.44
2018-04-16T08:59:28.457Z,12.56
2018-04-16T09:01:56.045Z,12.37
2018-04-16T09:04:23.674Z,12.31
2018-04-16T09:06:51.269Z,12.47
2018-04-16T09:09:19.752Z,12.54
2018-04-16T09:11:47.507Z,12.57
2018-04-16T09:14:15.098Z,12.65
2018-04-16T09:16:42.683Z,12.73
2018-04-16T09:19:10.297Z,12.77
2018-04-16T09:21:37.881Z,12.87
2018-04-16T09:24:05.472Z,13.11
2018-04-16T09:26:33.054Z,13.07
2018-04-16T09:29:01.570Z,13.09
2018-04-16T09:31:29.151Z,13.05
2018-04-16T09:33:56.740Z,13.16
2018-04-16T09:36:24.325Z,13.23
2018-04-16T09:38:51.934Z,13.28
2018-04-16T09:41:19.529Z,13.37
2018-04-16T09:43:48.074Z,13.46
2018-04-16T09:46:16.550Z,13.42
2018-04-16T09:48:44.153Z,13.48
2018-04-16T09:51:11.744Z,13.65
2018-04-16T09:53:39.498Z,13.79
2018-04-16T09:56:07.453Z,13.88
2018-04-16T09:58:35.096Z,14.14
2018-04-16T10:01:03.180Z,13.85
2018-04-16T10:03:32.372Z,13.90
2018-04-16T10:06:00.827Z,14.14
2018-04-16T10:08:29.661Z,14.05
2018-04-16T10:10:57.647Z,14.19
2018-04-16T10:13:25.233Z,14.17
2018-04-16T10:15:52.817Z,14.46
2018-04-16T10:18:20.431Z,14.48
2018-04-16T10:20:48.013Z,14.35
2018-04-16T10:23:16.226Z,14.21
2018-04-16T10:25:43.881Z,14.30
2018-04-16T10:28:11.465Z,14.36
2018-04-16T10:30:39.137Z,14.49
2018-04-16T10:33:06.745Z,14.43
2018-04-16T10:35:34.332Z,14.66
2018-04-16T10:38:01.915Z,14.57
2018-04-16T10:40:29.548Z,14.82
2018-04-16T10:42:57.114Z,14.73
2018-04-16T10:45:26.513Z,15.11
2018-04-16T10:47:54.093Z,15.29
2018-04-16T10:50:22.538Z,15.20
2018-04-16T10:52:50.898Z,14.88
2018-04-16T10:55:19.480Z,14.92
2018-04-16T10:57:47.185Z,15.13
2018-04-16T11:00:14.845Z,15.30
2018-04-16T11:02:42.508Z,15.31
2018-04-16T11:05:10.100Z,15.50
2018-04-16T11:07:38.126Z,15.69
2018-04-16T11:10:06.626Z,15.80
2018-04-16T11:12:34.253Z,15.74
2018-04-16T11:15:01.855Z,15.97
2018-04-16T11:17:29.487Z,15.60
2018-04-16T11:19:57.173Z,15.66
2018-04-16T11:22:24.837Z,15.82
2018-04-16T11:24:52.453Z,15.89
2018-04-16T11:27:20.116Z,16.04
2018-04-16T11:29:47.701Z,15.89
2018-04-16T11:32:16.392Z,16.00
2018-04-16T11:34:44.013Z,15.95
2018-04-16T11:37:12.409Z,15.93
2018-04-16T11:39:40.954Z,16.23
2018-04-16T11:42:08.597Z,16.21
2018-04-16T11:44:36.178Z,16.27
2018-04-16T11:47:03.822Z,16.42
2018-04-16T11:49:31.489Z,16.16
2018-04-16T11:51:59.154Z,16.40
2018-04-16T11:54:26.781Z,16.20
2018-04-16T11:56:54.370Z,16.18
2018-04-16T11:59:21.986Z,16.35
2018-04-16T12:01:49.577Z,16.34
2018-04-16T12:04:17.229Z,16.24
2018-04-16T12:06:44.781Z,16.64
2018-04-16T12:09:12.408Z,16.44
2018-04-16T12:11:39.991Z,16.48
2018-04-16T12:14:07.608Z,16.60
2018-04-16T12:16:35.353Z,16.68
2018-04-16T12:19:02.920Z,16.71
2018-04-16T12:21:30.501Z,16.80
2018-04-16T12:23:58.157Z,16.77
2018-04-16T12:26:25.741Z,16.97
2018-04-16T12:28:54.033Z,17.04
2018-04-16T12:31:22.326Z,16.85
2018-04-16T12:33:49.936Z,16.91
2018-04-16T12:36:17.594Z,17.04
2018-04-16T12:38:45.189Z,16.77
2018-04-16T12:41:12.805Z,16.82
2018-04-16T12:43:40.390Z,16.88
2018-04-16T12:46:07.974Z,17.11
2018-04-16T12:48:35.555Z,17.21
2018-04-16T12:51:03.146Z,17.33
2018-04-16T12:53:32.944Z,17.54
2018-04-16T12:56:00.526Z,17.57
2018-04-16T12:58:28.109Z,17.63
2018-04-16T13:00:55.689Z,17.90
2018-04-16T13:03:23.270Z,18.06
2018-04-16T13:05:50.866Z,17.66
2018-04-16T13:08:18.469Z,17.61
2018-04-16T13:10:46.045Z,17.45
2018-04-16T13:13:13.626Z,17.71
2018-04-16T13:15:42.025Z,17.87
2018-04-16T13:18:09.609Z,17.97
2018-04-16T13:20:38.137Z,17.97
2018-04-16T13:23:05.749Z,17.94
2018-04-16T13:25:33.422Z,18.01
2018-04-16T13:28:01.037Z,17.94
2018-04-16T13:30:28.626Z,18.18
2018-04-16T13:32:56.209Z,18.34
2018-04-16T13:35:23.861Z,18.22
2018-04-16T13:37:51.446Z,18.17
2018-04-16T13:40:19.089Z,18.06
2018-04-16T13:42:46.681Z,17.77
2018-04-16T13:45:14.262Z,17.63
2018-04-16T13:47:41.842Z,17.56
2018-04-16T13:50:10.275Z,17.45
2018-04-16T13:52:37.916Z,17.59
2018-04-16T13:55:05.529Z,17.73
2018-04-16T13:57:33.816Z,17.64
2018-04-16T14:00:02.278Z,17.52
2018-04-16T14:02:29.863Z,17.67
2018-04-16T14:04:57.443Z,17.65
2018-04-16T14:07:25.025Z,17.85
2018-04-16T14:09:52.606Z,17.59
2018-04-16T14:12:20.978Z,17.23
2018-04-16T14:14:48.559Z,17.32
2018-04-16T14:17:16.142Z,17.39
2018-04-16T14:19:43.729Z,17.46
2018-04-16T14:22:11.406Z,17.02
2018-04-16T14:24:39.001Z,16.65
2018-04-16T14:27:06.628Z,16.89
2018-04-16T14:29:34.227Z,16.84
2018-04-16T14:32:01.830Z,16.63
2018-04-16T14:34:29.415Z,16.77
2018-04-16T14:36:57.798Z,16.77
2018-04-16T14:39:25.385Z,16.60
2018-04-16T14:41:53.017Z,16.50
2018-04-16T14:44:20.577Z,16.34
2018-04-16T14:46:48.159Z,16.23
2018-04-16T14:49:15.837Z,16.10
2018-04-16T14:51:43.454Z,15.93
2018-04-16T14:54:11.133Z,15.91
2018-04-16T14:56:38.726Z,15.78
2018-04-16T14:59:06.352Z,15.51
2018-04-16T15:01:34.042Z,15.61
2018-04-16T15:04:01.627Z,15.54
2018-04-16T15:06:29.212Z,15.42
2018-04-16T15:08:56.793Z,15.55
2018-04-16T15:11:24.381Z,15.57
2018-04-16T15:13:52.022Z,15.56
2018-04-16T15:16:19.614Z,15.51
2018-04-16T15:18:47.199Z,15.63
2018-04-16T15:21:14.809Z,15.58
2018-04-16T15:23:42.400Z,15.35
2018-04-16T15:26:09.987Z,15.43
2018-04-16T15:28:37.588Z,15.33
2018-04-16T15:31:05.232Z,15.35
2018-04-16T15:33:32.847Z,15.14
2018-04-16T15:36:00.429Z,15.11
2018-04-16T15:38:28.013Z,15.03
2018-04-16T15:40:55.596Z,15.07
2018-04-16T15:43:23.183Z,14.94
2018-04-16T15:45:50.769Z,14.94
2018-04-16T15:48:18.354Z,14.88
2018-04-16T15:50:46.032Z,14.88
2018-04-16T15:53:13.659Z,14.81
2018-04-16T15:55:41.246Z,14.79
2018-04-16T15:58:08.841Z,14.68
2018-04-16T16:00:37.337Z,14.75
2018-04-16T16:03:04.923Z,14.66
2018-04-16T16:05:32.613Z,14.74
2018-04-16T16:08:00.202Z,14.63
2018-04-16T16:10:27.809Z,14.61
2018-04-16T16:12:55.389Z,14.64
2018-04-16T16:15:22.995Z,14.75
2018-04-16T16:17:50.594Z,14.80
2018-04-16T16:20:18.177Z,14.61
2018-04-16T16:22:45.771Z,14.57
2018-04-16T16:25:13.360Z,14.39
2018-04-16T16:27:40.941Z,14.47
2018-04-16T16:30:08.635Z,14.57
2018-04-16T16:32:36.290Z,14.60
2018-04-16T16:35:03.886Z,14.43
2018-04-16T16:37:31.472Z,14.43
2018-04-16T16:39:59.058Z,14.18
2018-04-16T16:42:26.742Z,14.26
2018-04-16T16:44:54.330Z,14.34
2018-04-16T16:47:21.917Z,14.21
2018-04-16T16:49:49.530Z,14.09
2018-04-16T16:52:17.899Z,14.25
2018-04-16T16:54:45.494Z,14.32
2018-04-16T16:57:13.137Z,14.18
2018-04-16T16:59:40.789Z,14.05
2018-04-16T17:02:08.381Z,14.06
2018-04-16T17:04:35.970Z,14.06
2018-04-16T17:07:03.553Z,14.03
2018-04-16T17:09:31.240Z,14.19
2018-04-16T17:11:58.905Z,14.06
2018-04-16T17:14:26.482Z,14.15
2018-04-16T17:16:54.073Z,14.08
2018-04-16T17:19:22.479Z,13.89
2018-04-16T17:21:50.887Z,13.87
2018-04-16T17:24:18.470Z,13.94
2018-04-16T17:26:46.060Z,13.80
2018-04-16T17:29:13.646Z,13.79
2018-04-16T17:31:41.439Z,13.79
2018-04-16T17:34:09.097Z,13.71
2018-04-16T17:36:36.695Z,13.69
2018-04-16T17:39:04.293Z,13.80
2018-04-16T17:41:31.884Z,13.85
2018-04-16T17:43:59.465Z,13.76
2018-04-16T17:46:27.083Z,13.63
2018-04-16T17:48:55.540Z,13.70
2018-04-16T17:51:23.186Z,13.67
2018-04-16T17:53:50.801Z,13.62
2018-04-16T17:56:18.398Z,13.59
2018-04-16T17:58:45.977Z,13.56
2018-04-16T18:01:13.562Z,13.66
2018-04-16T18:03:41.197Z,13.76
2018-04-16T18:06:08.790Z,13.89
2018-04-16T18:08:36.373Z,13.79
2018-04-16T18:11:03.952Z,13.75
2018-04-16T18:13:31.541Z,13.74
2018-04-16T18:15:59.137Z,13.66
2018-04-16T18:18:26.738Z,13.56
2018-04-16T18:20:55.154Z,13.62
2018-04-16T18:23:23.238Z,13.65
2018-04-16T18:25:50.874Z,13.73
2018-04-16T18:28:18.507Z,13.65
2018-04-16T18:30:46.169Z,13.59
2018-04-16T18:33:13.828Z,13.54
2018-04-16T18:35:41.501Z,13.49
2018-04-16T18:38:09.214Z,13.43
2018-04-16T18:40:36.801Z,13.40
2018-04-16T18:43:04.437Z,13.37
2018-04-16T18:45:32.033Z,13.38
2018-04-16T18:47:59.627Z,13.37
2018-04-16T18:50:27.238Z,13.37
2018-04-16T18:52:54.884Z,13.37
2018-04-16T18:55:23.264Z,13.55
2018-04-16T18:57:51.700Z,13.51
2018-04-16T19:00:20.228Z,13.59
2018-04-16T19:02:47.872Z,13.58
2018-04-16T19:05:15.474Z,13.62
2018-04-16T19:07:43.623Z,13.59
2018-04-16T19:10:11.563Z,13.61
2018-04-16T19:12:39.287Z,13.63
2018-04-16T19:15:06.879Z,13.60
2018-04-16T19:17:39.962Z,13.63
2018-04-16T19:20:07.627Z,13.62
2018-04-16T19:22:35.216Z,13.81
2018-04-16T19:25:02.910Z,13.72
2018-04-16T19:27:36.095Z,13.63
2018-04-16T19:30:03.714Z,13.57
2018-04-16T19:32:37.029Z,13.56
2018-04-16T19:35:08.429Z,13.54
2018-04-16T19:37:36.025Z,13.50
2018-04-16T19:40:03.654Z,13.50
2018-04-16T19:42:36.930Z,13.54
2018-04-16T19:45:05.566Z,13.49
2018-04-16T19:47:33.213Z,13.49
2018-04-16T19:50:06.451Z,13.48
2018-04-16T19:52:34.965Z,13.49
2018-04-16T19:55:02.661Z,13.48
2018-04-16T19:57:36.731Z,13.54
2018-04-16T20:00:05.216Z,13.53
2018-04-16T20:02:39.186Z,13.52
2018-04-16T20:05:07.505Z,13.54
2018-04-16T20:07:35.097Z,13.48
2018-04-16T20:10:02.867Z,13.44
2018-04-16T20:12:30.451Z,13.51
2018-04-16T20:14:58.071Z,13.49
2018-04-16T20:17:25.760Z,13.51
2018-04-16T20:19:53.358Z,13.49
2018-04-16T20:22:20.995Z,13.60
2018-04-16T20:24:48.713Z,13.42
2018-04-16T20:27:17.205Z,13.46
2018-04-16T20:29:44.788Z,13.55
2018-04-16T20:32:12.398Z,13.34
2018-04-16T20:34:40.065Z,13.35
2018-04-16T20:37:07.677Z,13.38
2018-04-16T20:39:37.322Z,13.39
2018-04-16T20:42:05.961Z,13.48
2018-04-16T20:44:34.609Z,13.44
2018-04-16T20:47:02.205Z,13.46
2018-04-16T20:49:29.919Z,13.38
2018-04-16T20:51:57.649Z,13.31
2018-04-16T20:54:25.242Z,13.45
2018-04-16T20:56:52.875Z,13.36
2018-04-16T20:59:20.465Z,13.30
2018-04-16T21:01:48.102Z,13.24
2018-04-16T21:04:15.719Z,13.16
2018-04-16T21:06:43.373Z,13.20
2018-04-16T21:09:11.018Z,13.23
2018-04-16T21:11:38.624Z,13.21
2018-04-16T21:14:06.305Z,13.18
2018-04-16T21:16:33.897Z,13.13
2018-04-16T21:19:01.485Z,13.11
2018-04-16T21:21:29.074Z,13.08
2018-04-16T21:23:56.671Z,13.02
2018-04-16T21:26:24.266Z,12.83
2018-04-16T21:28:51.894Z,12.72
2018-04-16T21:31:19.509Z,12.62
2018-04-16T21:33:47.102Z,12.55
2018-04-16T21:36:14.694Z,12.58
2018-04-16T21:38:42.279Z,12.49
2018-04-16T21:41:09.895Z,12.43
2018-04-16T21:43:37.478Z,12.46
2018-04-16T21:46:05.063Z,12.42
2018-04-16T21:48:32.681Z,12.50
2018-04-16T21:51:00.265Z,12.31
2018-04-16T21:53:27.855Z,12.13
2018-04-16T21:55:56.346Z,11.97
2018-04-16T21:58:24.718Z,12.02
2018-04-16T22:00:53.137Z,12.15
2018-04-16T22:03:20.731Z,12.12
2018-04-16T22:05:48.362Z,11.97
2018-04-16T22:08:16.637Z,11.82
2018-04-16T22:10:44.225Z,11.72
2018-04-16T22:13:11.809Z,11.82
2018-04-16T22:15:39.390Z,11.89
2018-04-16T22:18:07.813Z,11.80
2018-04-16T22:20:35.403Z,11.68
2018-04-16T22:23:02.985Z,11.61
2018-04-16T22:25:30.573Z,11.57
2018-04-16T22:27:59.070Z,11.49
2018-04-16T22:30:26.661Z,11.45
2018-04-16T22:32:54.244Z,11.39
2018-04-16T22:35:22.750Z,11.34
2018-04-16T22:37:50.334Z,11.55
2018-04-16T22:40:17.929Z,11.57
2018-04-16T22:42:45.514Z,11.60
2018-04-16T22:45:13.109Z,11.41
2018-04-16T22:47:40.688Z,11.32
2018-04-16T22:50:08.385Z,11.22
2018-04-16T22:52:36.005Z,11.18
2018-04-16T22:55:03.649Z,11.13
2018-04-16T22:57:32.008Z,11.20
2018-04-16T22:59:59.597Z,11.11
2018-04-16T23:02:27.189Z,11.00
2018-04-16T23:04:54.823Z,11.20
2018-04-16T23:07:23.224Z,11.39
2018-04-16T23:09:51.628Z,11.18
2018-04-16T23:12:19.234Z,11.02
2018-04-16T23:14:47.748Z,10.93
2018-04-16T23:17:16.216Z,11.09
2018-04-16T23:19:43.803Z,11.24
2018-04-16T23:22:11.399Z,11.10
2018-04-16T23:24:39.008Z,10.97
2018-04-16T23:27:06.680Z,10.93
2018-04-16T23:29:34.335Z,10.81
2018-04-16T23:32:01.925Z,10.98
2018-04-16T23:34:29.521Z,10.83
2018-04-16T23:36:57.163Z,10.90
2018-04-16T23:39:24.757Z,10.86
2018-04-16T23:41:52.359Z,10.80
2018-04-16T23:44:19.955Z,10.72
2018-04-16T23:46:47.572Z,10.65
2018-04-16T23:49:15.161Z,10.59
2018-04-16T23:51:42.760Z,10.55
2018-04-16T23:54:10.351Z,10.49
2018-04-16T23:56:38.008Z,10.47
2018-04-16T23:59:05.600Z,10.44
